sensor_id;sensor_type;location;lat;lon;timestamp;P1;durP1;ratioP1;P2;durP2;ratioP2
21833;SDS011;11079;51.092;3.458;2023-05-02T00:05:17;54.67;;;24.52;;
21833;SDS011;11079;51.092;3.458;2023-05-02T00:12:01;50.30;;;22.67;;
21833;SDS011;11079;51.092;3.458;2023-05-02T00:15:55;49.30;;;24.48;;
21833;SDS011;11079;51.092;3.458;2023-05-02T00:19:05;51.25;;;23.50;;
21833;SDS011;11079;51.092;3.458;2023-05-02T00:22:13;43.25;;;21.73;;
21833;SDS011;11079;51.092;3.458;2023-05-02T00:25:25;45.47;;;23.10;;
21833;SDS011;11079;51.092;3.458;2023-05-02T00:28:05;52.05;;;24.15;;
21833;SDS011;11079;51.092;3.458;2023-05-02T00:30:48;50.30;;;24.90;;
21833;SDS011;11079;51.092;3.458;2023-05-02T00:33:59;53.22;;;25.77;;
21833;SDS011;11079;51.092;3.458;2023-05-02T00:43:51;54.95;;;26.40;;
21833;SDS011;11079;51.092;3.458;2023-05-02T00:47:00;52.25;;;25.52;;
21833;SDS011;11079;51.092;3.458;2023-05-02T00:50:37;49.33;;;25.80;;
21833;SDS011;11079;51.092;3.458;2023-05-02T00:53:35;50.92;;;26.45;;
21833;SDS011;11079;51.092;3.458;2023-05-02T00:57:00;52.40;;;27.00;;
21833;SDS011;11079;51.092;3.458;2023-05-02T00:59:50;55.25;;;27.13;;
21833;SDS011;11079;51.092;3.458;2023-05-02T01:02:50;58.42;;;28.67;;
21833;SDS011;11079;51.092;3.458;2023-05-02T01:13:06;50.50;;;26.85;;
21833;SDS011;11079;51.092;3.458;2023-05-02T01:16:34;60.15;;;29.02;;
21833;SDS011;11079;51.092;3.458;2023-05-02T01:19:41;51.00;;;26.02;;
21833;SDS011;11079;51.092;3.458;2023-05-02T01:22:55;59.13;;;26.70;;
21833;SDS011;11079;51.092;3.458;2023-05-02T01:25:59;56.47;;;27.45;;
21833;SDS011;11079;51.092;3.458;2023-05-02T01:29:04;56.42;;;27.73;;
21833;SDS011;11079;51.092;3.458;2023-05-02T01:32:00;54.95;;;27.27;;
21833;SDS011;11079;51.092;3.458;2023-05-02T01:34:53;55.10;;;27.90;;
21833;SDS011;11079;51.092;3.458;2023-05-02T01:38:25;51.13;;;27.27;;
21833;SDS011;11079;51.092;3.458;2023-05-02T01:41:33;56.03;;;29.55;;
21833;SDS011;11079;51.092;3.458;2023-05-02T01:44:47;61.10;;;29.90;;
21833;SDS011;11079;51.092;3.458;2023-05-02T01:47:57;56.88;;;28.85;;
21833;SDS011;11079;51.092;3.458;2023-05-02T01:50:26;58.47;;;29.88;;
21833;SDS011;11079;51.092;3.458;2023-05-02T01:53:36;54.70;;;29.05;;
21833;SDS011;11079;51.092;3.458;2023-05-02T01:59:45;52.67;;;27.50;;
21833;SDS011;11079;51.092;3.458;2023-05-02T02:09:45;44.25;;;21.92;;
21833;SDS011;11079;51.092;3.458;2023-05-02T02:15:47;32.67;;;19.15;;
21833;SDS011;11079;51.092;3.458;2023-05-02T02:18:56;41.08;;;20.45;;
21833;SDS011;11079;51.092;3.458;2023-05-02T02:22:35;39.30;;;20.35;;
21833;SDS011;11079;51.092;3.458;2023-05-02T02:25:43;35.08;;;19.30;;
21833;SDS011;11079;51.092;3.458;2023-05-02T02:28:35;36.25;;;20.85;;
21833;SDS011;11079;51.092;3.458;2023-05-02T02:31:19;44.15;;;22.50;;
21833;SDS011;11079;51.092;3.458;2023-05-02T02:41:32;42.20;;;22.13;;
21833;SDS011;11079;51.092;3.458;2023-05-02T02:52:14;44.53;;;23.42;;
21833;SDS011;11079;51.092;3.458;2023-05-02T03:01:30;50.38;;;25.63;;
21833;SDS011;11079;51.092;3.458;2023-05-02T03:07:39;44.03;;;23.45;;
21833;SDS011;11079;51.092;3.458;2023-05-02T03:11:03;52.60;;;25.02;;
21833;SDS011;11079;51.092;3.458;2023-05-02T03:13:50;60.40;;;28.00;;
21833;SDS011;11079;51.092;3.458;2023-05-02T03:17:06;49.65;;;26.10;;
21833;SDS011;11079;51.092;3.458;2023-05-02T03:20:22;55.63;;;26.75;;
21833;SDS011;11079;51.092;3.458;2023-05-02T03:46:29;47.80;;;24.88;;
21833;SDS011;11079;51.092;3.458;2023-05-02T03:49:23;48.80;;;22.63;;
21833;SDS011;11079;51.092;3.458;2023-05-02T03:52:34;45.67;;;23.63;;
21833;SDS011;11079;51.092;3.458;2023-05-02T03:55:12;39.20;;;21.33;;
21833;SDS011;11079;51.092;3.458;2023-05-02T03:57:42;42.10;;;20.80;;
21833;SDS011;11079;51.092;3.458;2023-05-02T04:00:23;39.33;;;21.00;;
21833;SDS011;11079;51.092;3.458;2023-05-02T04:09:02;31.50;;;17.35;;
21833;SDS011;11079;51.092;3.458;2023-05-02T04:19:49;23.08;;;12.93;;
21833;SDS011;11079;51.092;3.458;2023-05-02T04:27:10;21.38;;;12.98;;
21833;SDS011;11079;51.092;3.458;2023-05-02T04:38:17;20.38;;;10.48;;
21833;SDS011;11079;51.092;3.458;2023-05-02T04:41:44;17.27;;;10.40;;
21833;SDS011;11079;51.092;3.458;2023-05-02T04:45:41;13.60;;;9.23;;
21833;SDS011;11079;51.092;3.458;2023-05-02T04:48:20;13.48;;;8.50;;
21833;SDS011;11079;51.092;3.458;2023-05-02T05:20:17;18.25;;;8.38;;
21833;SDS011;11079;51.092;3.458;2023-05-02T05:23:10;15.57;;;8.30;;
21833;SDS011;11079;51.092;3.458;2023-05-02T05:26:54;12.43;;;7.47;;
21833;SDS011;11079;51.092;3.458;2023-05-02T05:38:29;13.88;;;7.93;;
21833;SDS011;11079;51.092;3.458;2023-05-02T05:41:42;10.35;;;6.88;;
21833;SDS011;11079;51.092;3.458;2023-05-02T05:44:37;12.90;;;7.22;;
21833;SDS011;11079;51.092;3.458;2023-05-02T05:51:27;12.13;;;6.85;;
21833;SDS011;11079;51.092;3.458;2023-05-02T05:54:31;15.20;;;9.15;;
21833;SDS011;11079;51.092;3.458;2023-05-02T06:05:30;39.42;;;22.02;;
21833;SDS011;11079;51.092;3.458;2023-05-02T06:34:06;12.98;;;5.40;;
21833;SDS011;11079;51.092;3.458;2023-05-02T06:36:32;13.20;;;5.82;;
21833;SDS011;11079;51.092;3.458;2023-05-02T06:39:00;6.22;;;3.63;;
21833;SDS011;11079;51.092;3.458;2023-05-02T06:41:39;8.32;;;3.42;;
21833;SDS011;11079;51.092;3.458;2023-05-02T06:44:05;10.85;;;3.92;;
21833;SDS011;11079;51.092;3.458;2023-05-02T06:46:31;9.57;;;3.50;;
21833;SDS011;11079;51.092;3.458;2023-05-02T06:48:57;5.40;;;3.38;;
21833;SDS011;11079;51.092;3.458;2023-05-02T06:51:23;6.95;;;2.75;;
21833;SDS011;11079;51.092;3.458;2023-05-02T06:53:49;10.30;;;3.45;;
21833;SDS011;11079;51.092;3.458;2023-05-02T06:56:15;7.05;;;3.38;;
21833;SDS011;11079;51.092;3.458;2023-05-02T06:58:41;5.55;;;3.08;;
21833;SDS011;11079;51.092;3.458;2023-05-02T07:01:07;7.70;;;2.30;;
21833;SDS011;11079;51.092;3.458;2023-05-02T07:03:33;5.15;;;2.33;;
21833;SDS011;11079;51.092;3.458;2023-05-02T07:05:59;5.00;;;2.40;;
21833;SDS011;11079;51.092;3.458;2023-05-02T07:08:25;9.13;;;2.25;;
21833;SDS011;11079;51.092;3.458;2023-05-02T07:10:51;4.57;;;2.97;;
21833;SDS011;11079;51.092;3.458;2023-05-02T07:13:16;9.93;;;2.22;;
21833;SDS011;11079;51.092;3.458;2023-05-02T07:15:42;6.07;;;2.20;;
21833;SDS011;11079;51.092;3.458;2023-05-02T07:18:07;4.22;;;1.92;;
21833;SDS011;11079;51.092;3.458;2023-05-02T07:20:36;9.15;;;2.38;;
21833;SDS011;11079;51.092;3.458;2023-05-02T07:23:02;7.80;;;2.63;;
21833;SDS011;11079;51.092;3.458;2023-05-02T07:25:28;5.13;;;2.25;;
21833;SDS011;11079;51.092;3.458;2023-05-02T07:27:54;5.50;;;2.47;;
21833;SDS011;11079;51.092;3.458;2023-05-02T07:30:19;4.97;;;2.30;;
21833;SDS011;11079;51.092;3.458;2023-05-02T07:32:45;6.15;;;1.98;;
21833;SDS011;11079;51.092;3.458;2023-05-02T07:35:11;5.20;;;1.92;;
21833;SDS011;11079;51.092;3.458;2023-05-02T07:37:37;6.30;;;2.00;;
21833;SDS011;11079;51.092;3.458;2023-05-02T07:40:03;4.47;;;2.22;;
21833;SDS011;11079;51.092;3.458;2023-05-02T07:42:29;9.15;;;4.30;;
21833;SDS011;11079;51.092;3.458;2023-05-02T07:44:55;5.97;;;2.60;;
21833;SDS011;11079;51.092;3.458;2023-05-02T07:47:22;12.23;;;2.88;;
21833;SDS011;11079;51.092;3.458;2023-05-02T07:49:51;7.35;;;2.33;;
21833;SDS011;11079;51.092;3.458;2023-05-02T07:52:18;6.18;;;1.92;;
21833;SDS011;11079;51.092;3.458;2023-05-02T07:54:46;5.95;;;1.95;;
21833;SDS011;11079;51.092;3.458;2023-05-02T07:57:13;5.05;;;2.10;;
21833;SDS011;11079;51.092;3.458;2023-05-02T07:59:39;7.30;;;2.55;;
21833;SDS011;11079;51.092;3.458;2023-05-02T08:02:05;5.85;;;1.88;;
21833;SDS011;11079;51.092;3.458;2023-05-02T08:04:31;5.97;;;2.15;;
21833;SDS011;11079;51.092;3.458;2023-05-02T08:06:57;9.63;;;2.00;;
21833;SDS011;11079;51.092;3.458;2023-05-02T08:09:23;7.63;;;2.35;;
21833;SDS011;11079;51.092;3.458;2023-05-02T08:11:48;8.35;;;1.88;;
21833;SDS011;11079;51.092;3.458;2023-05-02T08:14:14;6.75;;;2.17;;
21833;SDS011;11079;51.092;3.458;2023-05-02T08:16:40;6.78;;;2.22;;
21833;SDS011;11079;51.092;3.458;2023-05-02T08:19:08;7.63;;;2.08;;
21833;SDS011;11079;51.092;3.458;2023-05-02T08:21:33;5.65;;;1.92;;
21833;SDS011;11079;51.092;3.458;2023-05-02T08:23:59;7.05;;;2.05;;
21833;SDS011;11079;51.092;3.458;2023-05-02T08:26:27;5.25;;;1.92;;
21833;SDS011;11079;51.092;3.458;2023-05-02T08:28:54;7.25;;;2.50;;
21833;SDS011;11079;51.092;3.458;2023-05-02T08:31:22;8.88;;;2.85;;
21833;SDS011;11079;51.092;3.458;2023-05-02T08:33:47;5.50;;;2.35;;
21833;SDS011;11079;51.092;3.458;2023-05-02T08:36:14;7.65;;;2.22;;
21833;SDS011;11079;51.092;3.458;2023-05-02T08:38:43;6.32;;;2.13;;
21833;SDS011;11079;51.092;3.458;2023-05-02T08:41:10;9.82;;;2.17;;
21833;SDS011;11079;51.092;3.458;2023-05-02T08:43:38;5.47;;;2.58;;
21833;SDS011;11079;51.092;3.458;2023-05-02T08:46:05;8.68;;;2.30;;
21833;SDS011;11079;51.092;3.458;2023-05-02T08:48:38;6.38;;;2.30;;
21833;SDS011;11079;51.092;3.458;2023-05-02T08:51:10;11.40;;;2.30;;
21833;SDS011;11079;51.092;3.458;2023-05-02T08:53:39;8.82;;;2.63;;
21833;SDS011;11079;51.092;3.458;2023-05-02T08:56:09;9.13;;;3.20;;
21833;SDS011;11079;51.092;3.458;2023-05-02T08:58:37;6.93;;;2.78;;
21833;SDS011;11079;51.092;3.458;2023-05-02T09:01:17;12.35;;;3.20;;
21833;SDS011;11079;51.092;3.458;2023-05-02T09:03:46;7.97;;;2.60;;
21833;SDS011;11079;51.092;3.458;2023-05-02T09:06:14;10.32;;;3.08;;
21833;SDS011;11079;51.092;3.458;2023-05-02T09:09:00;5.78;;;2.58;;
21833;SDS011;11079;51.092;3.458;2023-05-02T09:11:48;11.48;;;2.88;;
21833;SDS011;11079;51.092;3.458;2023-05-02T09:14:25;10.23;;;2.70;;
21833;SDS011;11079;51.092;3.458;2023-05-02T09:17:19;7.13;;;2.28;;
21833;SDS011;11079;51.092;3.458;2023-05-02T09:19:58;7.75;;;2.42;;
21833;SDS011;11079;51.092;3.458;2023-05-02T09:22:32;5.22;;;2.67;;
21833;SDS011;11079;51.092;3.458;2023-05-02T09:25:08;6.57;;;3.00;;
21833;SDS011;11079;51.092;3.458;2023-05-02T09:27:51;7.35;;;3.20;;
21833;SDS011;11079;51.092;3.458;2023-05-02T09:30:25;5.95;;;2.47;;
21833;SDS011;11079;51.092;3.458;2023-05-02T09:32:51;6.32;;;2.55;;
21833;SDS011;11079;51.092;3.458;2023-05-02T09:35:20;9.55;;;3.17;;
21833;SDS011;11079;51.092;3.458;2023-05-02T09:37:56;6.35;;;2.33;;
21833;SDS011;11079;51.092;3.458;2023-05-02T09:40:22;4.68;;;2.33;;
21833;SDS011;11079;51.092;3.458;2023-05-02T09:42:49;7.78;;;2.42;;
21833;SDS011;11079;51.092;3.458;2023-05-02T09:45:20;5.10;;;2.25;;
21833;SDS011;11079;51.092;3.458;2023-05-02T09:47:47;8.02;;;2.20;;
21833;SDS011;11079;51.092;3.458;2023-05-02T09:50:32;4.38;;;1.70;;
21833;SDS011;11079;51.092;3.458;2023-05-02T09:53:06;3.92;;;2.33;;
21833;SDS011;11079;51.092;3.458;2023-05-02T09:55:33;10.13;;;2.83;;
21833;SDS011;11079;51.092;3.458;2023-05-02T09:57:59;5.35;;;1.98;;
21833;SDS011;11079;51.092;3.458;2023-05-02T10:00:42;7.22;;;2.35;;
21833;SDS011;11079;51.092;3.458;2023-05-02T10:03:08;5.93;;;1.77;;
21833;SDS011;11079;51.092;3.458;2023-05-02T10:05:37;7.20;;;2.25;;
21833;SDS011;11079;51.092;3.458;2023-05-02T10:08:04;6.57;;;2.05;;
21833;SDS011;11079;51.092;3.458;2023-05-02T10:10:36;5.70;;;2.20;;
21833;SDS011;11079;51.092;3.458;2023-05-02T10:13:08;6.07;;;2.25;;
21833;SDS011;11079;51.092;3.458;2023-05-02T10:15:40;3.80;;;2.08;;
21833;SDS011;11079;51.092;3.458;2023-05-02T10:18:10;5.20;;;2.50;;
21833;SDS011;11079;51.092;3.458;2023-05-02T10:20:41;5.18;;;2.80;;
21833;SDS011;11079;51.092;3.458;2023-05-02T10:23:17;8.05;;;2.80;;
21833;SDS011;11079;51.092;3.458;2023-05-02T10:25:43;7.50;;;3.13;;
21833;SDS011;11079;51.092;3.458;2023-05-02T10:28:10;7.22;;;2.55;;
21833;SDS011;11079;51.092;3.458;2023-05-02T10:30:38;6.35;;;3.20;;
21833;SDS011;11079;51.092;3.458;2023-05-02T10:33:04;9.00;;;3.03;;
21833;SDS011;11079;51.092;3.458;2023-05-02T10:35:30;5.57;;;3.13;;
21833;SDS011;11079;51.092;3.458;2023-05-02T10:37:58;6.10;;;3.00;;
21833;SDS011;11079;51.092;3.458;2023-05-02T10:40:25;9.15;;;3.78;;
21833;SDS011;11079;51.092;3.458;2023-05-02T10:42:51;10.60;;;3.33;;
21833;SDS011;11079;51.092;3.458;2023-05-02T10:45:34;7.35;;;3.33;;
21833;SDS011;11079;51.092;3.458;2023-05-02T10:48:11;6.70;;;2.40;;
21833;SDS011;11079;51.092;3.458;2023-05-02T10:50:48;8.60;;;2.60;;
21833;SDS011;11079;51.092;3.458;2023-05-02T10:53:26;7.70;;;2.55;;
21833;SDS011;11079;51.092;3.458;2023-05-02T10:58:34;7.50;;;2.75;;
21833;SDS011;11079;51.092;3.458;2023-05-02T11:03:58;7.40;;;2.63;;
21833;SDS011;11079;51.092;3.458;2023-05-02T11:06:28;7.72;;;2.95;;
21833;SDS011;11079;51.092;3.458;2023-05-02T11:11:44;4.53;;;2.53;;
21833;SDS011;11079;51.092;3.458;2023-05-02T11:14:12;5.75;;;2.83;;
21833;SDS011;11079;51.092;3.458;2023-05-02T11:24:44;8.52;;;3.08;;
21833;SDS011;11079;51.092;3.458;2023-05-02T11:30:00;4.93;;;2.85;;
21833;SDS011;11079;51.092;3.458;2023-05-02T11:35:23;6.78;;;2.92;;
21833;SDS011;11079;51.092;3.458;2023-05-02T11:37:57;7.85;;;2.80;;
21833;SDS011;11079;51.092;3.458;2023-05-02T11:40:24;6.63;;;2.80;;
21833;SDS011;11079;51.092;3.458;2023-05-02T11:42:55;7.57;;;2.85;;
21833;SDS011;11079;51.092;3.458;2023-05-02T11:45:31;7.05;;;2.80;;
21833;SDS011;11079;51.092;3.458;2023-05-02T11:48:00;9.55;;;2.72;;
21833;SDS011;11079;51.092;3.458;2023-05-02T11:50:29;6.72;;;2.90;;
21833;SDS011;11079;51.092;3.458;2023-05-02T11:52:55;6.22;;;2.67;;
21833;SDS011;11079;51.092;3.458;2023-05-02T11:55:22;6.47;;;2.70;;
21833;SDS011;11079;51.092;3.458;2023-05-02T11:57:48;7.88;;;2.90;;
21833;SDS011;11079;51.092;3.458;2023-05-02T12:00:15;8.23;;;3.42;;
21833;SDS011;11079;51.092;3.458;2023-05-02T12:02:42;7.80;;;2.97;;
21833;SDS011;11079;51.092;3.458;2023-05-02T12:05:13;8.52;;;3.05;;
21833;SDS011;11079;51.092;3.458;2023-05-02T12:07:40;5.97;;;2.70;;
21833;SDS011;11079;51.092;3.458;2023-05-02T12:10:07;8.00;;;2.50;;
21833;SDS011;11079;51.092;3.458;2023-05-02T12:12:34;4.93;;;2.25;;
21833;SDS011;11079;51.092;3.458;2023-05-02T12:15:07;8.43;;;3.00;;
21833;SDS011;11079;51.092;3.458;2023-05-02T12:17:36;4.50;;;2.55;;
21833;SDS011;11079;51.092;3.458;2023-05-02T12:20:05;7.15;;;2.28;;
21833;SDS011;11079;51.092;3.458;2023-05-02T12:22:32;4.55;;;2.25;;
21833;SDS011;11079;51.092;3.458;2023-05-02T12:24:58;6.15;;;2.30;;
21833;SDS011;11079;51.092;3.458;2023-05-02T12:27:26;5.88;;;2.65;;
21833;SDS011;11079;51.092;3.458;2023-05-02T12:29:53;7.65;;;3.00;;
21833;SDS011;11079;51.092;3.458;2023-05-02T12:32:31;6.28;;;2.97;;
21833;SDS011;11079;51.092;3.458;2023-05-02T12:34:58;6.03;;;3.28;;
21833;SDS011;11079;51.092;3.458;2023-05-02T12:37:27;7.88;;;3.30;;
21833;SDS011;11079;51.092;3.458;2023-05-02T12:39:54;7.97;;;3.72;;
21833;SDS011;11079;51.092;3.458;2023-05-02T12:42:23;4.57;;;2.83;;
21833;SDS011;11079;51.092;3.458;2023-05-02T12:44:51;6.63;;;3.03;;
21833;SDS011;11079;51.092;3.458;2023-05-02T12:47:17;7.80;;;3.30;;
21833;SDS011;11079;51.092;3.458;2023-05-02T12:49:47;5.93;;;3.40;;
21833;SDS011;11079;51.092;3.458;2023-05-02T12:52:13;6.18;;;3.05;;
21833;SDS011;11079;51.092;3.458;2023-05-02T12:54:39;7.32;;;3.30;;
21833;SDS011;11079;51.092;3.458;2023-05-02T12:57:05;7.25;;;3.90;;
21833;SDS011;11079;51.092;3.458;2023-05-02T12:59:32;5.82;;;3.28;;
21833;SDS011;11079;51.092;3.458;2023-05-02T13:01:58;10.60;;;4.32;;
21833;SDS011;11079;51.092;3.458;2023-05-02T13:04:37;7.95;;;3.78;;
21833;SDS011;11079;51.092;3.458;2023-05-02T13:07:06;8.85;;;3.65;;
21833;SDS011;11079;51.092;3.458;2023-05-02T13:09:33;7.72;;;3.50;;
21833;SDS011;11079;51.092;3.458;2023-05-02T13:11:58;6.22;;;2.72;;
21833;SDS011;11079;51.092;3.458;2023-05-02T13:14:24;9.85;;;4.13;;
21833;SDS011;11079;51.092;3.458;2023-05-02T13:16:50;7.22;;;2.78;;
21833;SDS011;11079;51.092;3.458;2023-05-02T13:19:17;6.70;;;3.33;;
21833;SDS011;11079;51.092;3.458;2023-05-02T13:21:43;8.18;;;2.70;;
21833;SDS011;11079;51.092;3.458;2023-05-02T13:24:09;4.90;;;2.63;;
21833;SDS011;11079;51.092;3.458;2023-05-02T13:26:35;13.57;;;3.20;;
21833;SDS011;11079;51.092;3.458;2023-05-02T13:29:00;9.05;;;2.90;;
21833;SDS011;11079;51.092;3.458;2023-05-02T13:31:26;7.00;;;3.53;;
21833;SDS011;11079;51.092;3.458;2023-05-02T13:33:52;6.32;;;3.22;;
21833;SDS011;11079;51.092;3.458;2023-05-02T13:36:17;7.10;;;2.95;;
21833;SDS011;11079;51.092;3.458;2023-05-02T13:38:43;6.05;;;2.70;;
21833;SDS011;11079;51.092;3.458;2023-05-02T13:41:09;4.05;;;2.08;;
21833;SDS011;11079;51.092;3.458;2023-05-02T13:43:34;3.72;;;2.28;;
21833;SDS011;11079;51.092;3.458;2023-05-02T13:46:00;6.75;;;2.63;;
21833;SDS011;11079;51.092;3.458;2023-05-02T13:48:26;6.03;;;2.90;;
21833;SDS011;11079;51.092;3.458;2023-05-02T13:50:51;7.93;;;2.85;;
21833;SDS011;11079;51.092;3.458;2023-05-02T13:53:17;4.18;;;2.42;;
21833;SDS011;11079;51.092;3.458;2023-05-02T13:55:43;6.03;;;2.72;;
21833;SDS011;11079;51.092;3.458;2023-05-02T13:58:08;9.45;;;3.70;;
21833;SDS011;11079;51.092;3.458;2023-05-02T14:00:34;9.48;;;3.38;;
21833;SDS011;11079;51.092;3.458;2023-05-02T14:03:00;7.43;;;3.20;;
21833;SDS011;11079;51.092;3.458;2023-05-02T14:05:25;7.45;;;3.40;;
21833;SDS011;11079;51.092;3.458;2023-05-02T14:07:51;7.45;;;2.42;;
21833;SDS011;11079;51.092;3.458;2023-05-02T14:10:17;6.10;;;2.53;;
21833;SDS011;11079;51.092;3.458;2023-05-02T14:12:42;4.63;;;2.50;;
21833;SDS011;11079;51.092;3.458;2023-05-02T14:15:08;5.80;;;2.40;;
21833;SDS011;11079;51.092;3.458;2023-05-02T14:17:34;5.95;;;2.60;;
21833;SDS011;11079;51.092;3.458;2023-05-02T14:20:08;5.68;;;2.80;;
21833;SDS011;11079;51.092;3.458;2023-05-02T14:28:24;7.88;;;3.35;;
21833;SDS011;11079;51.092;3.458;2023-05-02T14:30:56;6.70;;;3.15;;
21833;SDS011;11079;51.092;3.458;2023-05-02T14:33:25;9.43;;;3.63;;
21833;SDS011;11079;51.092;3.458;2023-05-02T14:35:51;11.75;;;3.92;;
21833;SDS011;11079;51.092;3.458;2023-05-02T14:38:19;6.28;;;2.92;;
21833;SDS011;11079;51.092;3.458;2023-05-02T14:40:54;9.10;;;3.00;;
21833;SDS011;11079;51.092;3.458;2023-05-02T14:43:20;8.20;;;2.60;;
21833;SDS011;11079;51.092;3.458;2023-05-02T14:45:46;5.97;;;3.05;;
21833;SDS011;11079;51.092;3.458;2023-05-02T14:48:12;7.95;;;3.00;;
21833;SDS011;11079;51.092;3.458;2023-05-02T14:50:40;6.65;;;2.60;;
21833;SDS011;11079;51.092;3.458;2023-05-02T14:53:11;6.97;;;2.63;;
21833;SDS011;11079;51.092;3.458;2023-05-02T15:47:32;9.45;;;2.92;;
21833;SDS011;11079;51.092;3.458;2023-05-02T15:50:14;7.63;;;2.88;;
21833;SDS011;11079;51.092;3.458;2023-05-02T15:52:50;4.82;;;2.88;;
21833;SDS011;11079;51.092;3.458;2023-05-02T15:56:13;6.65;;;3.58;;
21833;SDS011;11079;51.092;3.458;2023-05-02T15:59:31;6.53;;;2.67;;
21833;SDS011;11079;51.092;3.458;2023-05-02T16:26:40;9.63;;;3.25;;
21833;SDS011;11079;51.092;3.458;2023-05-02T16:29:21;7.60;;;2.95;;
21833;SDS011;11079;51.092;3.458;2023-05-02T16:31:49;7.68;;;3.33;;
21833;SDS011;11079;51.092;3.458;2023-05-02T16:35:03;5.70;;;2.45;;
21833;SDS011;11079;51.092;3.458;2023-05-02T16:41:17;6.47;;;2.35;;
21833;SDS011;11079;51.092;3.458;2023-05-02T16:49:18;6.25;;;2.92;;
21833;SDS011;11079;51.092;3.458;2023-05-02T16:51:56;6.43;;;3.00;;
21833;SDS011;11079;51.092;3.458;2023-05-02T16:54:43;9.40;;;2.67;;
21833;SDS011;11079;51.092;3.458;2023-05-02T16:57:19;4.63;;;2.65;;
21833;SDS011;11079;51.092;3.458;2023-05-02T16:59:53;5.82;;;2.42;;
21833;SDS011;11079;51.092;3.458;2023-05-02T17:02:21;6.07;;;2.63;;
21833;SDS011;11079;51.092;3.458;2023-05-02T17:05:09;6.95;;;3.17;;
21833;SDS011;11079;51.092;3.458;2023-05-02T17:07:47;5.18;;;2.28;;
21833;SDS011;11079;51.092;3.458;2023-05-02T17:10:32;3.88;;;2.55;;
21833;SDS011;11079;51.092;3.458;2023-05-02T17:12:58;5.13;;;2.53;;
21833;SDS011;11079;51.092;3.458;2023-05-02T17:15:24;7.93;;;2.67;;
21833;SDS011;11079;51.092;3.458;2023-05-02T17:17:50;6.20;;;2.80;;
21833;SDS011;11079;51.092;3.458;2023-05-02T17:20:16;8.77;;;2.63;;
21833;SDS011;11079;51.092;3.458;2023-05-02T17:22:46;5.45;;;3.30;;
21833;SDS011;11079;51.092;3.458;2023-05-02T17:25:17;7.22;;;3.13;;
21833;SDS011;11079;51.092;3.458;2023-05-02T17:27:58;5.10;;;3.03;;
21833;SDS011;11079;51.092;3.458;2023-05-02T17:30:24;5.18;;;3.05;;
21833;SDS011;11079;51.092;3.458;2023-05-02T17:32:49;8.00;;;3.10;;
21833;SDS011;11079;51.092;3.458;2023-05-02T17:35:16;4.30;;;3.42;;
21833;SDS011;11079;51.092;3.458;2023-05-02T17:37:44;7.82;;;3.20;;
21833;SDS011;11079;51.092;3.458;2023-05-02T17:40:10;6.78;;;3.80;;
21833;SDS011;11079;51.092;3.458;2023-05-02T17:42:36;8.00;;;3.20;;
21833;SDS011;11079;51.092;3.458;2023-05-02T17:45:03;9.90;;;4.10;;
21833;SDS011;11079;51.092;3.458;2023-05-02T17:47:30;8.05;;;3.83;;
21833;SDS011;11079;51.092;3.458;2023-05-02T17:49:58;6.65;;;3.30;;
21833;SDS011;11079;51.092;3.458;2023-05-02T17:52:28;7.80;;;3.65;;
21833;SDS011;11079;51.092;3.458;2023-05-02T17:54:54;9.95;;;3.80;;
21833;SDS011;11079;51.092;3.458;2023-05-02T17:57:21;11.02;;;3.78;;
21833;SDS011;11079;51.092;3.458;2023-05-02T17:59:52;6.55;;;3.58;;
21833;SDS011;11079;51.092;3.458;2023-05-02T18:02:22;6.97;;;4.13;;
21833;SDS011;11079;51.092;3.458;2023-05-02T18:05:26;8.52;;;3.75;;
21833;SDS011;11079;51.092;3.458;2023-05-02T18:07:52;10.50;;;3.55;;
21833;SDS011;11079;51.092;3.458;2023-05-02T18:10:19;9.07;;;3.72;;
21833;SDS011;11079;51.092;3.458;2023-05-02T18:23:07;9.73;;;3.72;;
21833;SDS011;11079;51.092;3.458;2023-05-02T18:25:53;16.80;;;5.72;;
21833;SDS011;11079;51.092;3.458;2023-05-02T18:28:44;6.25;;;3.90;;
21833;SDS011;11079;51.092;3.458;2023-05-02T18:31:29;6.85;;;3.40;;
21833;SDS011;11079;51.092;3.458;2023-05-02T18:34:14;9.25;;;3.88;;
21833;SDS011;11079;51.092;3.458;2023-05-02T18:37:07;9.70;;;4.35;;
21833;SDS011;11079;51.092;3.458;2023-05-02T18:39:33;11.75;;;4.50;;
21833;SDS011;11079;51.092;3.458;2023-05-02T18:42:23;7.68;;;4.10;;
21833;SDS011;11079;51.092;3.458;2023-05-02T18:44:51;7.20;;;3.70;;
21833;SDS011;11079;51.092;3.458;2023-05-02T18:47:26;5.55;;;4.13;;
21833;SDS011;11079;51.092;3.458;2023-05-02T18:49:55;7.13;;;4.18;;
21833;SDS011;11079;51.092;3.458;2023-05-02T18:52:46;6.93;;;4.20;;
21833;SDS011;11079;51.092;3.458;2023-05-02T18:55:31;7.38;;;4.93;;
21833;SDS011;11079;51.092;3.458;2023-05-02T18:58:32;13.43;;;4.40;;
21833;SDS011;11079;51.092;3.458;2023-05-02T19:01:36;9.20;;;4.45;;
21833;SDS011;11079;51.092;3.458;2023-05-02T19:04:31;9.48;;;4.53;;
21833;SDS011;11079;51.092;3.458;2023-05-02T19:07:31;8.27;;;3.88;;
21833;SDS011;11079;51.092;3.458;2023-05-02T19:10:01;6.28;;;3.55;;
21833;SDS011;11079;51.092;3.458;2023-05-02T19:12:41;9.48;;;4.25;;
21833;SDS011;11079;51.092;3.458;2023-05-02T19:15:16;8.00;;;4.15;;
21833;SDS011;11079;51.092;3.458;2023-05-02T19:18:24;11.55;;;4.28;;
21833;SDS011;11079;51.092;3.458;2023-05-02T19:20:50;7.35;;;3.92;;
21833;SDS011;11079;51.092;3.458;2023-05-02T19:23:17;7.88;;;4.20;;
21833;SDS011;11079;51.092;3.458;2023-05-02T19:25:45;8.57;;;4.10;;
21833;SDS011;11079;51.092;3.458;2023-05-02T19:28:14;8.68;;;4.10;;
21833;SDS011;11079;51.092;3.458;2023-05-02T19:31:51;5.40;;;3.72;;
21833;SDS011;11079;51.092;3.458;2023-05-02T19:35:16;11.02;;;3.70;;
21833;SDS011;11079;51.092;3.458;2023-05-02T19:38:33;7.90;;;4.10;;
21833;SDS011;11079;51.092;3.458;2023-05-02T19:41:57;11.27;;;4.05;;
21833;SDS011;11079;51.092;3.458;2023-05-02T19:45:14;10.48;;;4.32;;
21833;SDS011;11079;51.092;3.458;2023-05-02T19:47:45;7.55;;;4.28;;
21833;SDS011;11079;51.092;3.458;2023-05-02T19:50:35;9.90;;;4.57;;
21833;SDS011;11079;51.092;3.458;2023-05-02T19:53:14;6.28;;;4.20;;
21833;SDS011;11079;51.092;3.458;2023-05-02T19:55:40;6.93;;;4.18;;
21833;SDS011;11079;51.092;3.458;2023-05-02T19:58:06;8.10;;;4.35;;
21833;SDS011;11079;51.092;3.458;2023-05-02T20:00:35;8.73;;;5.13;;
21833;SDS011;11079;51.092;3.458;2023-05-02T20:06:35;7.70;;;5.28;;
21833;SDS011;11079;51.092;3.458;2023-05-02T20:09:36;10.88;;;5.90;;
21833;SDS011;11079;51.092;3.458;2023-05-02T20:12:13;8.70;;;5.10;;
21833;SDS011;11079;51.092;3.458;2023-05-02T20:14:56;8.07;;;5.25;;
21833;SDS011;11079;51.092;3.458;2023-05-02T20:17:42;9.93;;;5.38;;
21833;SDS011;11079;51.092;3.458;2023-05-02T20:23:22;10.43;;;5.40;;
21833;SDS011;11079;51.092;3.458;2023-05-02T20:26:20;11.80;;;5.07;;
21833;SDS011;11079;51.092;3.458;2023-05-02T20:33:23;13.43;;;5.40;;
21833;SDS011;11079;51.092;3.458;2023-05-02T20:36:18;9.60;;;5.95;;
21833;SDS011;11079;51.092;3.458;2023-05-02T20:39:32;12.98;;;6.10;;
21833;SDS011;11079;51.092;3.458;2023-05-02T20:42:19;11.85;;;5.32;;
21833;SDS011;11079;51.092;3.458;2023-05-02T20:45:31;12.27;;;6.40;;
21833;SDS011;11079;51.092;3.458;2023-05-02T20:48:55;10.85;;;5.90;;
21833;SDS011;11079;51.092;3.458;2023-05-02T20:55:13;12.45;;;5.82;;
21833;SDS011;11079;51.092;3.458;2023-05-02T20:59:05;11.30;;;6.05;;
21833;SDS011;11079;51.092;3.458;2023-05-02T21:02:01;12.52;;;6.05;;
21833;SDS011;11079;51.092;3.458;2023-05-02T21:04:52;11.20;;;6.13;;
21833;SDS011;11079;51.092;3.458;2023-05-02T21:07:53;14.80;;;5.90;;
21833;SDS011;11079;51.092;3.458;2023-05-02T21:10:41;14.43;;;6.53;;
21833;SDS011;11079;51.092;3.458;2023-05-02T21:13:34;8.80;;;5.32;;
21833;SDS011;11079;51.092;3.458;2023-05-02T21:16:22;14.90;;;6.13;;